Time;durP1;ratioP1;P1;durP2;ratioP2;P2;SDS_P1;SDS_P2;PMS_P1;PMS_P2;Temp;Humidity;BMP_temperature;BMP_pressure;BME280_temperature;BME280_humidity;BME280_pressure;Samples;Min_cycle;Max_cycle;Signal;HPM_P1;HPM_P2
2024/02/13 00:02:15;;;;;;;;;;;;;;;4.47;100.00;101346.09;5056638;28;19920;-75
2024/02/13 00:04:40;;;;;;;;;;;;;;;4.47;100.00;101348.69;5056606;28;19931;-75
2024/02/13 00:07:06;;;;;;;;;;;;;;;4.45;100.00;101342.66;5056880;28;19920;-75
2024/02/13 00:09:31;;;;;;;;;;;;;;;4.46;100.00;101359.94;5070835;28;19931;-75
2024/02/13 00:11:56;;;;;;;;;;;;;;;4.42;100.00;101359.09;5074949;28;19922;-75
2024/02/13 00:14:21;;;;;;;;;;;;;;;4.42;100.00;101359.97;5054098;28;19912;-75
2024/02/13 00:16:47;;;;;;;;;;;;;;;4.40;100.00;101359.13;5048632;28;20011;-75
2024/02/13 00:19:12;;;;;;;;;;;;;;;4.39;100.00;101360.00;5057781;28;20208;-75
2024/02/13 00:21:37;;;;;;;;;;;;;;;4.34;100.00;101364.34;5054688;28;19988;-75
2024/02/13 00:24:03;;;;;;;;;;;;;;;4.35;100.00;101366.06;5054843;28;20148;-75
2024/02/13 00:26:28;;;;;;;;;;;;;;;4.37;100.00;101369.53;5056165;28;19932;-75
2024/02/13 00:28:54;;;;;;;;;;;;;;;4.41;100.00;101371.22;5052422;28;19925;-75
2024/02/13 00:31:20;;;;;;;;;;;;;;;4.40;100.00;101369.50;5050341;28;19967;-75
2024/02/13 00:33:45;;;;;;;;;;;;;;;4.41;100.00;101375.53;5051917;28;19921;-75
2024/02/13 00:36:12;;;;;;;;;;;;;;;4.47;100.00;101370.31;5056385;28;20262;-75
2024/02/13 00:38:40;;;;;;;;;;;;;;;4.47;100.00;101374.63;5056881;28;19917;-75
2024/02/13 00:41:05;;;;;;;;;;;;;;;4.48;100.00;101373.78;5056123;28;19921;-75
2024/02/13 00:43:30;;;;;;;;;;;;;;;4.47;100.00;101385.00;5050613;28;19959;-75
2024/02/13 00:45:57;;;;;;;;;;;;;;;4.47;100.00;101382.41;5058166;28;19924;-75
2024/02/13 00:48:22;;;;;;;;;;;;;;;4.45;100.00;101387.63;5049842;28;19967;-75
2024/02/13 00:50:48;;;;;;;;;;;;;;;4.45;100.00;101390.22;5055512;28;19921;-75
2024/02/13 00:53:16;;;;;;;;;;;;;;;4.42;100.00;101391.09;5046771;28;20011;-75
2024/02/13 00:55:45;;;;;;;;;;;;;;;4.48;100.00;101391.94;5055504;28;20250;-75
2024/02/13 00:58:11;;;;;;;;;;;;;;;4.53;100.00;101400.53;5056253;28;19909;-75
2024/02/13 01:00:39;;;;;;;;;;;;;;;4.52;100.00;101401.41;5052083;28;20286;-75
2024/02/13 01:03:05;;;;;;;;;;;;;;;4.53;100.00;101397.94;5050678;28;19920;-75
2024/02/13 01:05:30;;;;;;;;;;;;;;;4.54;100.00;101400.53;5061342;28;20027;-75
2024/02/13 01:07:56;;;;;;;;;;;;;;;4.55;100.00;101399.66;5055101;28;19913;-75
2024/02/13 01:10:21;;;;;;;;;;;;;;;4.54;100.00;101399.66;5060164;28;19912;-75
2024/02/13 01:12:46;;;;;;;;;;;;;;;4.51;100.00;101395.38;5050529;28;20220;-75
2024/02/13 01:15:13;;;;;;;;;;;;;;;4.53;100.00;101404.00;5058342;28;20127;-75
2024/02/13 01:17:38;;;;;;;;;;;;;;;4.52;100.00;101404.88;5061083;28;19926;-75
2024/02/13 01:20:04;;;;;;;;;;;;;;;4.52;100.00;101409.19;5074736;28;19952;-75
2024/02/13 01:22:29;;;;;;;;;;;;;;;4.53;100.00;101413.50;5056465;28;19917;-75
2024/02/13 01:24:55;;;;;;;;;;;;;;;4.52;100.00;101415.22;5059809;28;19929;-75
2024/02/13 01:27:21;;;;;;;;;;;;;;;4.53;100.00;101416.97;5048139;28;19984;-75
2024/02/13 01:29:47;;;;;;;;;;;;;;;4.55;100.00;101412.63;5054995;28;20118;-75
2024/02/13 01:32:16;;;;;;;;;;;;;;;4.52;100.00;101414.38;5048211;28;20200;-75
2024/02/13 01:34:42;;;;;;;;;;;;;;;4.52;100.00;101415.22;5055028;28;19927;-75
2024/02/13 01:37:07;;;;;;;;;;;;;;;4.48;100.00;101410.09;5052907;28;19913;-75
2024/02/13 01:39:32;;;;;;;;;;;;;;;4.47;100.00;101409.22;5060684;28;19920;-75
2024/02/13 01:41:58;;;;;;;;;;;;;;;4.48;100.00;101410.09;5074337;28;19979;-75
2024/02/13 01:44:24;;;;;;;;;;;;;;;4.49;100.00;101407.47;5059228;28;20279;-75
2024/02/13 01:46:52;;;;;;;;;;;;;;;4.51;100.00;101408.34;5054929;28;19983;-75
2024/02/13 01:49:17;;;;;;;;;;;;;;;4.53;100.00;101406.59;5057511;28;19924;-75
2024/02/13 01:51:42;;;;;;;;;;;;;;;4.56;100.00;101395.31;5058446;28;19920;-75
2024/02/13 01:54:12;;;;;;;;;;;;;;;4.52;100.00;101406.59;5051482;28;20289;-75
2024/02/13 01:56:38;;;;;;;;;;;;;;;4.49;100.00;101404.03;5052683;28;20273;-75
2024/02/13 01:59:04;;;;;;;;;;;;;;;4.43;100.00;101399.72;5050723;28;19956;-75
2024/02/13 02:01:29;;;;;;;;;;;;;;;4.44;100.00;101396.28;5053269;28;19920;-75
2024/02/13 02:03:58;;;;;;;;;;;;;;;4.47;100.00;101405.75;5053683;28;20128;-75
2024/02/13 02:06:23;;;;;;;;;;;;;;;4.48;100.00;101410.94;5055361;28;19921;-75
2024/02/13 02:08:49;;;;;;;;;;;;;;;4.51;100.00;101408.34;5054691;28;19927;-75
2024/02/13 02:11:14;;;;;;;;;;;;;;;4.54;100.00;101405.72;5067052;28;19925;-75
2024/02/13 02:13:39;;;;;;;;;;;;;;;4.57;100.00;101403.09;5052664;28;19979;-75
2024/02/13 02:16:06;;;;;;;;;;;;;;;4.61;100.00;101409.13;5070756;28;20151;-75
2024/02/13 02:18:32;;;;;;;;;;;;;;;4.59;100.00;101416.06;5057234;28;20243;-75
2024/02/13 02:20:57;;;;;;;;;;;;;;;4.60;100.00;101417.78;5061893;28;19928;-75
2024/02/13 02:23:22;;;;;;;;;;;;;;;4.56;100.00;101414.34;5053520;28;20128;-75
2024/02/13 02:25:48;;;;;;;;;;;;;;;4.57;100.00;101412.63;5053417;28;19983;-75
2024/02/13 02:28:15;;;;;;;;;;;;;;;4.54;100.00;101413.50;5049583;28;19921;-75
2024/02/13 02:30:42;;;;;;;;;;;;;;;4.55;100.00;101416.97;5048089;28;20278;-75
2024/02/13 02:33:08;;;;;;;;;;;;;;;4.53;100.00;101409.19;5064152;28;20209;-75
2024/02/13 02:35:33;;;;;;;;;;;;;;;4.54;100.00;101413.50;5046036;28;19928;-75
2024/02/13 02:37:58;;;;;;;;;;;;;;;4.54;100.00;101407.44;5052239;28;20215;-75
2024/02/13 02:40:24;;;;;;;;;;;;;;;4.54;100.00;101410.91;5052922;28;19987;-75
2024/02/13 02:42:52;;;;;;;;;;;;;;;4.54;100.00;101410.03;5068011;28;20234;-75
2024/02/13 02:45:17;;;;;;;;;;;;;;;4.53;100.00;101416.97;5053248;28;20196;-75
2024/02/13 02:47:42;;;;;;;;;;;;;;;4.49;100.00;101427.38;5047133;28;19935;-75
2024/02/13 02:50:10;;;;;;;;;;;;;;;4.51;100.00;101428.22;5054151;28;19927;-75
2024/02/13 02:52:35;;;;;;;;;;;;;;;4.52;100.00;101422.16;5054029;28;20007;-75
2024/02/13 02:55:01;;;;;;;;;;;;;;;4.48;100.00;101425.66;5054184;28;20243;-75
2024/02/13 02:57:26;;;;;;;;;;;;;;;4.49;100.00;101427.38;5046496;28;20023;-75
2024/02/13 02:59:52;;;;;;;;;;;;;;;4.46;100.00;101424.78;5054269;28;19917;-75
2024/02/13 03:02:17;;;;;;;;;;;;;;;4.45;100.00;101423.06;5053361;28;19920;-75
2024/02/13 03:04:42;;;;;;;;;;;;;;;4.44;100.00;101422.22;5054745;28;20235;-75
2024/02/13 03:07:08;;;;;;;;;;;;;;;4.42;100.00;101424.81;5052073;28;19963;-75
2024/02/13 03:09:33;;;;;;;;;;;;;;;4.41;100.00;101425.66;5061522;28;19996;-75
2024/02/13 03:11:59;;;;;;;;;;;;;;;4.38;100.00;101428.31;5052988;28;19920;-77
2024/02/13 03:14:25;;;;;;;;;;;;;;;4.39;100.00;101430.00;5049337;28;20153;-76
2024/02/13 03:16:50;;;;;;;;;;;;;;;4.39;100.00;101440.38;5053739;28;19947;-76
2024/02/13 03:19:16;;;;;;;;;;;;;;;4.36;100.00;101436.94;5051769;28;19967;-76
2024/02/13 03:21:42;;;;;;;;;;;;;;;4.38;100.00;101441.28;5054300;28;19924;-76
2024/02/13 03:24:08;;;;;;;;;;;;;;;4.35;100.00;101436.09;5062144;28;20188;-76
2024/02/13 03:26:33;;;;;;;;;;;;;;;4.35;100.00;101432.66;5057088;28;19921;-76
2024/02/13 03:28:59;;;;;;;;;;;;;;;4.35;100.00;101424.88;5055140;28;20216;-76
2024/02/13 03:31:24;;;;;;;;;;;;;;;4.36;100.00;101430.03;5053121;28;19924;-75
2024/02/13 03:33:49;;;;;;;;;;;;;;;4.32;100.00;101423.13;5062075;28;20003;-75
2024/02/13 03:36:16;;;;;;;;;;;;;;;4.34;100.00;101433.50;5055996;28;20116;-75
2024/02/13 03:38:43;;;;;;;;;;;;;;;4.32;100.00;101427.47;5060158;28;20208;-75
2024/02/13 03:41:08;;;;;;;;;;;;;;;4.30;100.00;101442.19;5053429;28;19921;-75
2024/02/13 03:43:34;;;;;;;;;;;;;;;4.27;100.00;101432.66;5054539;28;19974;-75
2024/02/13 03:45:59;;;;;;;;;;;;;;;4.22;100.00;101434.41;5051560;28;20020;-75
2024/02/13 03:48:24;;;;;;;;;;;;;;;4.23;100.00;101429.22;5059417;28;19999;-75
2024/02/13 03:50:49;;;;;;;;;;;;;;;4.24;100.00;101430.09;5059392;28;19920;-75
2024/02/13 03:53:15;;;;;;;;;;;;;;;4.19;100.00;101424.09;5061687;28;19952;-75
2024/02/13 03:55:40;;;;;;;;;;;;;;;4.28;100.00;101428.38;5054647;28;20197;-75
2024/02/13 03:58:06;;;;;;;;;;;;;;;4.29;100.00;101430.06;5056327;28;19974;-75
2024/02/13 04:00:32;;;;;;;;;;;;;;;4.29;100.00;101435.25;5073127;28;19917;-75
2024/02/13 04:02:57;;;;;;;;;;;;;;;4.27;100.00;101434.41;5053565;28;19932;-75
2024/02/13 04:05:24;;;;;;;;;;;;;;;4.28;100.00;101442.19;5061612;28;20003;-75
2024/02/13 04:07:49;;;;;;;;;;;;;;;4.27;100.00;101439.59;5055717;28;19913;-75
2024/02/13 04:10:15;;;;;;;;;;;;;;;4.28;100.00;101441.31;5068284;28;19950;-75
2024/02/13 04:12:40;;;;;;;;;;;;;;;4.26;100.00;101438.75;5057420;28;19921;-75
2024/02/13 04:15:06;;;;;;;;;;;;;;;4.28;100.00;101437.00;5055768;28;19921;-75
2024/02/13 04:17:31;;;;;;;;;;;;;;;4.28;100.00;101447.38;5058849;28;19943;-75
2024/02/13 04:19:57;;;;;;;;;;;;;;;4.28;100.00;101441.31;5069586;28;19928;-75
2024/02/13 04:22:22;;;;;;;;;;;;;;;4.27;100.00;101435.25;5075890;28;19921;-75
2024/02/13 04:24:47;;;;;;;;;;;;;;;4.26;100.00;101440.44;5065862;28;19926;-75
2024/02/13 04:27:12;;;;;;;;;;;;;;;4.31;100.00;101447.38;5052682;28;19928;-75
2024/02/13 04:29:40;;;;;;;;;;;;;;;4.34;100.00;101446.47;5050977;28;19921;-75
2024/02/13 04:32:05;;;;;;;;;;;;;;;4.31;100.00;101449.06;5048760;28;19920;-75
2024/02/13 04:34:31;;;;;;;;;;;;;;;4.32;100.00;101454.25;5051461;28;19928;-75
2024/02/13 04:36:56;;;;;;;;;;;;;;;4.31;100.00;101454.25;5054306;28;19966;-76
2024/02/13 04:39:21;;;;;;;;;;;;;;;4.31;100.00;101455.13;5052915;28;19924;-75
2024/02/13 04:41:46;;;;;;;;;;;;;;;4.34;100.00;101454.25;5053417;28;19984;-75
2024/02/13 04:44:12;;;;;;;;;;;;;;;4.36;100.00;101462.88;5049432;28;20231;-76
2024/02/13 04:46:39;;;;;;;;;;;;;;;4.36;100.00;101458.53;5053652;28;19924;-75
2024/02/13 04:49:05;;;;;;;;;;;;;;;4.37;100.00;101462.88;5055620;28;19928;-75
2024/02/13 04:51:30;;;;;;;;;;;;;;;4.34;100.00;101457.69;5054307;28;20197;-75
2024/02/13 04:53:55;;;;;;;;;;;;;;;4.38;100.00;101455.94;5059795;28;19963;-75
2024/02/13 04:56:21;;;;;;;;;;;;;;;4.36;100.00;101452.50;5053853;28;19925;-75
2024/02/13 04:58:46;;;;;;;;;;;;;;;4.35;100.00;101448.22;5052733;28;20023;-75
2024/02/13 05:01:14;;;;;;;;;;;;;;;4.32;100.00;101449.06;5052874;28;20294;-75
2024/02/13 05:03:41;;;;;;;;;;;;;;;4.29;100.00;101451.66;5053079;28;19925;-75
2024/02/13 05:08:55;;;;;;;;;;;;;;;4.25;100.00;101449.97;5066292;28;19924;-75
2024/02/13 05:11:24;;;;;;;;;;;;;;;4.27;100.00;101456.00;5055249;28;20116;-75
2024/02/13 05:13:50;;;;;;;;;;;;;;;4.26;100.00;101450.81;5054214;28;20204;-75
2024/02/13 05:16:17;;;;;;;;;;;;;;;4.26;100.00;101451.69;5055260;28;19963;-75
2024/02/13 05:18:43;;;;;;;;;;;;;;;4.27;100.00;101448.22;5055869;28;19924;-75
2024/02/13 05:21:08;;;;;;;;;;;;;;;4.27;100.00;101453.41;5048540;28;19921;-76
2024/02/13 05:23:34;;;;;;;;;;;;;;;4.21;100.00;101453.44;5057307;28;19947;-76
2024/02/13 05:25:59;;;;;;;;;;;;;;;4.26;100.00;101454.28;5069022;28;19928;-75
2024/02/13 05:28:24;;;;;;;;;;;;;;;4.24;100.00;101466.41;5047358;28;19920;-75
2024/02/13 05:30:50;;;;;;;;;;;;;;;4.26;100.00;101456.00;5052676;28;19921;-75
2024/02/13 05:33:15;;;;;;;;;;;;;;;4.30;100.00;101458.59;5043990;28;19921;-75
2024/02/13 05:35:44;;;;;;;;;;;;;;;4.35;100.00;101458.59;5051528;28;20212;-75
2024/02/13 05:38:09;;;;;;;;;;;;;;;4.34;100.00;101454.25;5054556;28;19927;-75
2024/02/13 05:40:36;;;;;;;;;;;;;;;4.32;100.00;101443.88;5054854;28;19921;-75
2024/02/13 05:43:01;;;;;;;;;;;;;;;4.30;100.00;101443.03;5054060;28;20278;-76
2024/02/13 05:45:26;;;;;;;;;;;;;;;4.34;100.00;101449.06;5069344;28;20154;-76
2024/02/13 05:47:51;;;;;;;;;;;;;;;4.36;100.00;101439.53;5053099;28;19943;-76
2024/02/13 05:50:19;;;;;;;;;;;;;;;4.37;100.00;101449.91;5065299;28;19926;-76
2024/02/13 05:52:47;;;;;;;;;;;;;;;4.32;100.00;101443.88;5054285;28;19921;-76
2024/02/13 05:55:13;;;;;;;;;;;;;;;4.36;100.00;101449.91;5053237;28;19920;-76
2024/02/13 05:57:41;;;;;;;;;;;;;;;4.37;100.00;101446.47;5050094;28;20175;-75
2024/02/13 06:00:09;;;;;;;;;;;;;;;4.35;100.00;101451.66;5049222;28;19954;-75
2024/02/13 06:02:36;;;;;;;;;;;;;;;4.40;100.00;101459.41;5050047;28;19932;-75
2024/02/13 06:05:01;;;;;;;;;;;;;;;4.38;100.00;101445.56;5061985;28;19924;-75
2024/02/13 06:07:27;;;;;;;;;;;;;;;4.37;100.00;101451.66;5052856;28;19921;-76
2024/02/13 06:09:53;;;;;;;;;;;;;;;4.33;100.00;101452.50;5072891;28;19916;-76
2024/02/13 06:12:18;;;;;;;;;;;;;;;4.33;100.00;101450.81;5067306;28;19988;-75
2024/02/13 06:14:43;;;;;;;;;;;;;;;4.32;100.00;101453.41;5053811;28;19917;-75
2024/02/13 06:17:08;;;;;;;;;;;;;;;4.35;100.00;101458.59;5050045;28;19921;-75
2024/02/13 06:19:34;;;;;;;;;;;;;;;4.31;100.00;101457.72;5054850;28;19983;-75
2024/02/13 06:21:59;;;;;;;;;;;;;;;4.33;100.00;101452.50;5054376;28;19916;-75
2024/02/13 06:24:24;;;;;;;;;;;;;;;4.34;100.00;101459.44;5054644;28;19966;-75
2024/02/13 06:26:50;;;;;;;;;;;;;;;4.29;100.00;101464.63;5072675;28;19920;-75
2024/02/13 06:29:16;;;;;;;;;;;;;;;4.27;100.00;101476.75;5059753;28;19965;-77
2024/02/13 06:31:41;;;;;;;;;;;;;;;4.29;100.00;101472.41;5058186;28;20216;-75
2024/02/13 06:34:06;;;;;;;;;;;;;;;4.29;100.00;101471.56;5057827;28;19921;-78
2024/02/13 06:36:32;;;;;;;;;;;;;;;4.29;100.00;101472.41;5071887;28;19918;-78
2024/02/13 06:38:57;;;;;;;;;;;;;;;4.26;100.00;101475.03;5060540;28;19921;-78
2024/02/13 06:41:22;;;;;;;;;;;;;;;4.23;100.00;101470.72;5058065;28;19917;-78
2024/02/13 06:43:47;;;;;;;;;;;;;;;4.21;100.00;101485.41;5054123;28;19925;-78
2024/02/13 06:46:14;;;;;;;;;;;;;;;4.19;100.00;101487.16;5052192;28;20148;-78
2024/02/13 06:48:39;;;;;;;;;;;;;;;4.25;100.00;101490.59;5051656;28;19924;-78
2024/02/13 06:51:05;;;;;;;;;;;;;;;4.25;100.00;101494.03;5053911;28;19955;-78
2024/02/13 06:53:30;;;;;;;;;;;;;;;4.24;100.00;101492.34;5053144;28;19920;-78
2024/02/13 06:55:55;;;;;;;;;;;;;;;4.16;100.00;101487.16;5059127;28;19923;-78
2024/02/13 06:58:21;;;;;;;;;;;;;;;4.18;100.00;101487.16;5054567;28;19983;-78
2024/02/13 07:00:47;;;;;;;;;;;;;;;4.17;100.00;101495.81;5049173;28;19932;-78
2024/02/13 07:03:12;;;;;;;;;;;;;;;4.18;100.00;101494.94;5057513;28;19921;-78
2024/02/13 07:05:38;;;;;;;;;;;;;;;4.22;100.00;101486.25;5058627;28;20216;-76
2024/02/13 07:08:03;;;;;;;;;;;;;;;4.25;100.00;101495.78;5056239;28;20431;-77
2024/02/13 07:10:28;;;;;;;;;;;;;;;4.25;100.00;101493.19;5059446;28;20275;-77
2024/02/13 07:12:56;;;;;;;;;;;;;;;4.25;100.00;101498.38;5057223;28;19927;-78
2024/02/13 07:15:22;;;;;;;;;;;;;;;4.17;100.00;101501.84;5060492;28;20243;-78
2024/02/13 07:17:48;;;;;;;;;;;;;;;4.16;100.00;101505.31;5057275;28;19921;-78
2024/02/13 07:20:13;;;;;;;;;;;;;;;4.16;100.00;101509.63;5055900;28;19916;-78
2024/02/13 07:22:39;;;;;;;;;;;;;;;4.14;100.00;101519.16;5057734;28;19924;-78
2024/02/13 07:25:05;;;;;;;;;;;;;;;4.16;100.00;101523.44;5059415;28;20277;-76
2024/02/13 07:27:30;;;;;;;;;;;;;;;4.16;100.00;101522.59;5056527;28;19917;-76
2024/02/13 07:29:56;;;;;;;;;;;;;;;4.17;100.00;101535.56;5054664;28;19920;-78
2024/02/13 07:32:22;;;;;;;;;;;;;;;4.16;100.00;101536.41;5053801;28;19921;-77
2024/02/13 07:34:47;;;;;;;;;;;;;;;4.14;100.00;101538.16;5058728;28;19913;-78
2024/02/13 07:37:13;;;;;;;;;;;;;;;4.14;100.00;101545.06;5053122;28;19956;-78
2024/02/13 07:39:38;;;;;;;;;;;;;;;4.16;100.00;101548.53;5055166;28;19978;-78
2024/02/13 07:42:03;;;;;;;;;;;;;;;4.14;100.00;101547.66;5057423;28;19996;-78
2024/02/13 07:44:31;;;;;;;;;;;;;;;4.19;100.00;101551.13;5057446;28;20262;-78
2024/02/13 07:46:57;;;;;;;;;;;;;;;4.21;100.00;101552.81;5053314;28;20173;-75
2024/02/13 07:49:25;;;;;;;;;;;;;;;4.22;100.00;101545.91;5053005;28;19916;-75
2024/02/13 07:51:51;;;;;;;;;;;;;;;4.22;100.00;101543.31;5051660;28;20009;-76
2024/02/13 07:54:17;;;;;;;;;;;;;;;4.19;100.00;101551.97;5058766;28;19927;-75
2024/02/13 07:56:42;;;;;;;;;;;;;;;4.20;100.00;101551.13;5055639;28;19995;-75
2024/02/13 07:59:09;;;;;;;;;;;;;;;4.18;100.00;101560.63;5053985;28;19924;-75
2024/02/13 08:01:34;;;;;;;;;;;;;;;4.20;100.00;101564.09;5056112;28;19943;-75
2024/02/13 08:04:00;;;;;;;;;;;;;;;4.26;100.00;101565.78;5053612;28;20243;-75
2024/02/13 08:06:25;;;;;;;;;;;;;;;4.31;100.00;101568.34;5054335;28;20226;-75
2024/02/13 08:08:50;;;;;;;;;;;;;;;4.32;100.00;101573.53;5063327;28;19920;-75
2024/02/13 08:11:21;;;;;;;;;;;;;;;4.35;100.00;101580.47;5062571;28;19943;-75
2024/02/13 08:13:46;;;;;;;;;;;;;;;4.39;100.00;101584.78;5052699;28;20101;-75
2024/02/13 08:16:11;;;;;;;;;;;;;;;4.39;100.00;101585.63;5053005;28;19928;-75
2024/02/13 08:18:37;;;;;;;;;;;;;;;4.41;100.00;101583.03;5061820;28;20220;-75
2024/02/13 08:21:02;;;;;;;;;;;;;;;4.46;100.00;101575.22;5053636;28;20250;-75
2024/02/13 08:23:27;;;;;;;;;;;;;;;4.51;100.00;101578.66;5055100;28;19933;-75
2024/02/13 08:25:53;;;;;;;;;;;;;;;4.48;100.00;101579.53;5055277;28;19917;-75
2024/02/13 08:28:19;;;;;;;;;;;;;;;4.49;100.00;101576.06;5055163;28;19931;-75
2024/02/13 08:30:44;;;;;;;;;;;;;;;4.52;100.00;101577.81;5056226;28;19962;-75
2024/02/13 08:33:10;;;;;;;;;;;;;;;4.51;100.00;101582.16;5054696;28;19917;-75
2024/02/13 08:35:36;;;;;;;;;;;;;;;4.58;100.00;101585.56;5054385;28;19923;-75
2024/02/13 08:38:02;;;;;;;;;;;;;;;4.60;100.00;101587.28;5052688;28;19924;-75
2024/02/13 08:40:27;;;;;;;;;;;;;;;4.60;100.00;101597.66;5071712;28;19917;-75
2024/02/13 08:42:53;;;;;;;;;;;;;;;4.67;100.00;101595.03;5051873;28;20286;-75
2024/02/13 08:45:18;;;;;;;;;;;;;;;4.73;100.00;101595.00;5054725;28;19927;-75
2024/02/13 08:47:43;;;;;;;;;;;;;;;4.76;100.00;101595.00;5057442;28;19921;-77
2024/02/13 08:50:09;;;;;;;;;;;;;;;4.82;100.00;101597.59;5044583;28;20023;-77
2024/02/13 08:52:34;;;;;;;;;;;;;;;4.89;100.00;101591.47;5049705;28;19920;-77
2024/02/13 08:54:59;;;;;;;;;;;;;;;4.95;100.00;101593.19;5049362;28;20232;-77
2024/02/13 08:57:24;;;;;;;;;;;;;;;5.00;100.00;101600.09;5050506;28;20228;-77
2024/02/13 08:59:52;;;;;;;;;;;;;;;5.05;100.00;101596.59;5049657;28;19928;-78
2024/02/13 09:02:17;;;;;;;;;;;;;;;5.09;100.00;101596.53;5048072;28;19948;-78
2024/02/13 09:04:42;;;;;;;;;;;;;;;5.12;100.00;101590.50;5048965;28;19925;-78
2024/02/13 09:07:07;;;;;;;;;;;;;;;5.14;100.00;101584.41;5052688;28;19943;-78
2024/02/13 09:09:32;;;;;;;;;;;;;;;5.17;100.00;101591.34;5052254;28;19921;-78
2024/02/13 09:12:02;;;;;;;;;;;;;;;5.19;100.00;101590.44;5050785;28;20271;-75
2024/02/13 09:14:28;;;;;;;;;;;;;;;5.24;100.00;101595.63;5054891;28;19927;-75
2024/02/13 09:16:56;;;;;;;;;;;;;;;5.31;100.00;101602.50;5064622;28;20142;-78
2024/02/13 09:19:21;;;;;;;;;;;;;;;5.34;100.00;101602.44;5061876;28;19927;-78
2024/02/13 09:21:46;;;;;;;;;;;;;;;5.38;100.00;101605.91;5064858;28;20212;-78
2024/02/13 09:24:14;;;;;;;;;;;;;;;5.37;100.00;101594.66;5059098;28;20152;-78
2024/02/13 09:26:41;;;;;;;;;;;;;;;5.44;100.00;101592.88;5067947;28;20254;-78
2024/02/13 09:29:06;;;;;;;;;;;;;;;5.48;100.00;101593.72;5063540;28;19924;-78
2024/02/13 09:31:31;;;;;;;;;;;;;;;5.51;100.00;101593.69;5064240;28;20133;-78
2024/02/13 09:33:57;;;;;;;;;;;;;;;5.55;100.00;101606.66;5065041;28;19920;-78
2024/02/13 09:36:22;;;;;;;;;;;;;;;5.58;100.00;101598.84;5070636;28;19917;-78
2024/02/13 09:38:47;;;;;;;;;;;;;;;5.60;100.00;101609.19;5066846;28;19927;-78
2024/02/13 09:41:14;;;;;;;;;;;;;;;5.62;100.00;101598.78;5066993;28;19916;-78
2024/02/13 09:43:45;;;;;;;;;;;;;;;5.65;100.00;101604.81;5063075;28;19951;-78
2024/02/13 09:46:12;;;;;;;;;;;;;;;5.69;100.00;101603.91;5065719;28;20240;-78
2024/02/13 09:48:37;;;;;;;;;;;;;;;5.74;100.00;101609.09;5067489;28;19949;-78
2024/02/13 09:51:07;;;;;;;;;;;;;;;5.78;100.00;101605.59;5059587;28;20146;-78
2024/02/13 09:53:36;;;;;;;;;;;;;;;5.80;100.00;101600.38;5063539;28;20228;-78
2024/02/13 09:56:02;;;;;;;;;;;;;;;5.84;100.00;101597.75;5068421;28;19927;-78
2024/02/13 09:58:29;;;;;;;;;;;;;;;5.86;100.00;101603.78;5064940;28;19920;-78
2024/02/13 10:00:55;;;;;;;;;;;;;;;5.90;100.00;101597.69;5064579;28;19927;-78
2024/02/13 10:03:20;;;;;;;;;;;;;;;5.91;100.00;101609.81;5064639;28;19924;-78
2024/02/13 10:05:45;;;;;;;;;;;;;;;5.92;100.00;101614.13;5066789;28;19928;-78
2024/02/13 10:08:11;;;;;;;;;;;;;;;5.93;100.00;101609.78;5064507;28;19924;-78
2024/02/13 10:10:37;;;;;;;;;;;;;;;5.95;100.00;101610.66;5068032;28;20030;-78
2024/02/13 10:13:03;;;;;;;;;;;;;;;5.99;100.00;101612.38;5064365;28;19991;-78
2024/02/13 10:15:45;;;;;;;;;;;;;;;6.04;100.00;101608.00;5049354;28;20277;-77
2024/02/13 10:18:13;;;;;;;;;;;;;;;6.08;100.00;101620.09;5051354;28;19962;-76
2024/02/13 10:20:38;;;;;;;;;;;;;;;6.12;100.00;101621.78;5049268;28;19995;-76
2024/02/13 10:23:04;;;;;;;;;;;;;;;6.18;100.00;101625.19;5049654;28;19924;-76
2024/02/13 10:25:31;;;;;;;;;;;;;;;6.22;100.00;101624.28;5049924;28;19928;-76
2024/02/13 10:28:01;;;;;;;;;;;;;;;6.25;100.00;101622.50;5051736;28;19917;-76
2024/02/13 10:30:30;;;;;;;;;;;;;;;6.28;100.00;101614.69;5051199;28;19944;-76
2024/02/13 10:32:58;;;;;;;;;;;;;;;6.33;100.00;101609.41;5050103;28;19948;-76
2024/02/13 10:35:23;;;;;;;;;;;;;;;6.36;100.00;101622.41;5051742;28;20396;-76
2024/02/13 10:37:48;;;;;;;;;;;;;;;6.37;100.00;101620.66;5054031;28;19917;-76
2024/02/13 10:40:24;;;;;;;;;;;;;;;6.39;100.00;101622.38;5053956;28;19917;-76
2024/02/13 10:42:52;;;;;;;;;;;;;;;6.44;100.00;101631.00;5055061;28;19920;-76
2024/02/13 10:45:18;;;;;;;;;;;;;;;6.45;100.00;101617.09;5054148;28;19916;-76
2024/02/13 10:47:51;;;;;;;;;;;;;;;6.49;100.00;101621.41;5054132;28;19944;-76
2024/02/13 10:50:17;;;;;;;;;;;;;;;6.55;100.00;101615.28;5054324;28;19925;-76
2024/02/13 10:52:44;;;;;;;;;;;;;;;6.60;100.00;101625.63;5053994;28;19920;-76
2024/02/13 10:55:10;;;;;;;;;;;;;;;6.64;100.00;101627.28;5054674;28;20124;-76
2024/02/13 10:57:37;;;;;;;;;;;;;;;6.65;100.00;101624.69;5054275;28;19927;-75
2024/02/13 11:00:10;;;;;;;;;;;;;;;6.69;100.00;101623.78;5053762;28;20152;-75
2024/02/13 11:02:36;;;;;;;;;;;;;;;6.75;100.00;101624.56;5053287;28;19951;-75
2024/02/13 11:05:08;;;;;;;;;;;;;;;6.82;100.00;101615.81;5053203;28;19923;-76
2024/02/13 11:07:33;;;;;;;;;;;;;;;6.90;100.00;101619.19;5051304;28;20307;-76
2024/02/13 11:09:59;;;;;;;;;;;;;;;6.99;100.00;101615.59;5052347;28;19920;-76
2024/02/13 11:12:25;;;;;;;;;;;;;;;7.05;100.00;101620.72;5053925;28;19992;-76
2024/02/13 11:14:53;;;;;;;;;;;;;;;7.08;100.00;101624.16;5053769;28;20379;-76
2024/02/13 11:17:18;;;;;;;;;;;;;;;7.09;100.00;101627.59;5053238;28;19921;-76
2024/02/13 11:19:46;;;;;;;;;;;;;;;7.19;100.00;101628.34;5053693;28;19944;-76
2024/02/13 11:22:12;;;;;;;;;;;;;;;7.20;100.00;101627.47;5053277;28;20185;-76
2024/02/13 11:24:54;;;;;;;;;;;;;;;7.19;100.00;101630.97;5053451;28;19971;-76
2024/02/13 11:27:23;;;;;;;;;;;;;;;7.15;100.00;101627.53;5051728;28;19983;-76
2024/02/13 11:29:57;;;;;;;;;;;;;;;7.17;100.00;101622.28;5053569;28;20205;-76
2024/02/13 11:32:30;;;;;;;;;;;;;;;7.17;100.00;101624.88;5070715;28;20307;-76
2024/02/13 11:34:56;;;;;;;;;;;;;;;7.19;100.00;101634.41;5070158;28;19924;-76
2024/02/13 11:37:27;;;;;;;;;;;;;;;7.21;100.00;101629.19;5068689;28;19927;-76
2024/02/13 11:39:53;;;;;;;;;;;;;;;7.18;100.00;101637.91;5069219;28;19920;-76
2024/02/13 11:42:19;;;;;;;;;;;;;;;7.15;100.00;101634.47;5070734;28;19922;-76
2024/02/13 11:44:47;;;;;;;;;;;;;;;7.13;100.00;101639.72;5071380;28;19908;-76
2024/02/13 11:47:38;;;;;;;;;;;;;;;7.12;100.00;101622.38;5069863;28;19920;-76
2024/02/13 11:50:08;;;;;;;;;;;;;;;7.10;100.00;101621.53;5071538;28;19924;-76
2024/02/13 11:52:34;;;;;;;;;;;;;;;7.10;100.00;101622.38;5067937;28;19927;-76
2024/02/13 11:55:01;;;;;;;;;;;;;;;7.14;100.00;101618.00;5067769;28;19981;-76
2024/02/13 11:57:26;;;;;;;;;;;;;;;7.17;100.00;101625.78;5071950;28;19991;-76
2024/02/13 11:59:59;;;;;;;;;;;;;;;7.21;100.00;101616.16;5071991;28;19920;-77
2024/02/13 12:02:25;;;;;;;;;;;;;;;7.23;100.00;101619.59;5068556;28;19920;-77
2024/02/13 12:04:51;;;;;;;;;;;;;;;7.27;100.00;101616.91;5066849;28;19962;-76
2024/02/13 12:07:16;;;;;;;;;;;;;;;7.29;100.00;101623.00;5067957;28;19917;-77
2024/02/13 12:09:42;;;;;;;;;;;;;;;7.34;100.00;101628.13;5067129;28;20292;-77
2024/02/13 12:12:09;;;;;;;;;;;;;;;7.37;100.00;101617.66;5057843;28;19925;-76
2024/02/13 12:14:35;;;;;;;;;;;;;;;7.39;100.00;101620.25;5051146;28;19928;-76
2024/02/13 12:17:07;;;;;;;;;;;;;;;7.41;100.00;101621.09;5059125;28;19920;-76
2024/02/13 12:19:43;;;;;;;;;;;;;;;7.45;100.00;101613.19;5054508;28;19956;-76
2024/02/13 12:22:09;;;;;;;;;;;;;;;7.50;100.00;101618.34;5065717;28;20793;-76
2024/02/13 12:24:35;;;;;;;;;;;;;;;7.49;100.00;101617.50;5062726;28;20290;-76
2024/02/13 12:27:00;;;;;;;;;;;;;;;7.49;100.00;101627.91;5065682;28;19959;-76
2024/02/13 12:29:25;;;;;;;;;;;;;;;7.53;100.00;101627.84;5067978;28;19939;-76
2024/02/13 12:31:51;;;;;;;;;;;;;;;7.50;100.00;101627.00;5068146;28;19921;-76
2024/02/13 12:34:16;;;;;;;;;;;;;;;7.46;100.00;101627.94;5065823;28;20120;-76